Meteorológiai információk azoknak akik tudják olvasni.

METAR = LHBP 310400Z 31017KT CAVOK 03/M01 Q1013 NOSIG

9 órás TAF = TAF TAF LHBP 242330Z 2423/2424 30008KT CAVOK BECMG 2506/2509 24010KT OVC030 TEMPO 2509/2515 24015G25KT 8000 -RA BKN013 OVC025 BECMG 2515/2518 30008KT CAVOK

24 órás TAF = TAF LHBP 301715Z 3018/3118 23009KT 9999 SCT040 BKN070 PROB40 TEMPO 3018/3101 1000 SHSNGS SCT012TCU BKN030 BECMG 3018/3021 29015G25KT BECMG 3023/3102 31020G32KT SCT015 TEMPO 3104/3109 31012G22KT BECMG 3108/3111 BKN035 BECMG 3114/3117 30010KT

ÁLLOMÁS.................... LHBP
ÉSZLELÉS................... Tue Jan 31, 05:00 CET
MOST....................... Tue Jan 31, 05:12 CET
IDŐ........................ 12 perccel ezelőtt
SZÉL....................... ÉNY irányból 17 csomó
LÁTÁSTÁVOLSÁG.............. 10 km vagy több
FELHŐZET................... jelentős felhőzet nincs
HŐMÉRSÉKLET................ 37°F (3°C)
HŐÉRZET.................... 27°F (-3°C)
HARMATPONT................. 30°F (-1°C)
PÁRATARTALOM............... 75%
LÉGNYOMÁS.................. 1013 hPa (29.91 in Hg)

További információ LHBP állomásról

Meteor információ kérése:        állomásról.    

 

www.tothgeza.hu

 

English version
Copyright © 2003-2023 Tóth Géza Minden jog fenntartva.